^^
Meteo Knjazevac Station Historical Data
Daily Summary for May 28, 2022 Units:  English    Metric   Both
Daily Weekly Monthly Yearly Custom
  High: Low: Average:
Temperature: 45.9 °F 30.7 °F 37.1 °F
Dew Point: 42.5 °F 30.5 °F 36 °F
Humidity: 99% 86% 96%
Wind Speed: 13.5mph 0mph 3.6mph
Wind Gust: 19mph - -
Wind- - South
Pressure: 30.21 in 30.11 in -
Precipitation: 0.00 in    
Historical Graphs
 
 
Tabular Data for May 28, 2022
Time Temperature Dew Point Pressure Wind Wind Speed Wind Gust Humidity Rainfall Rate (Hourly) solar Conditions
00:04 36.3 °F 36.1 °F 30.21 in South 2 mph 2 mph 99% 0.00 in 0 W/m2
00:09 36.3 °F 36.1 °F 30.21 in SW 1.4 mph 2 mph 99% 0.00 in 0 W/m2
00:14 36.3 °F 36.1 °F 30.21 in WSW 1.3 mph 1 mph 99% 0.00 in 0 W/m2
00:19 36.3 °F 36.1 °F 30.21 in WSW 1.1 mph 2 mph 99% 0.00 in 0 W/m2
00:24 36.3 °F 36.1 °F 30.21 in West 1.6 mph 1 mph 99% 0.00 in 0 W/m2
00:29 36.3 °F 36.1 °F 30.21 in West 0.4 mph 3 mph 99% 0.00 in 0 W/m2
00:34 36.3 °F 36.1 °F 30.21 in WSW 1.1 mph 1 mph 99% 0.00 in 0 W/m2
00:39 36.2 °F 36 °F 30.21 in WSW 0.7 mph 1 mph 99% 0.00 in 0 W/m2
00:44 36.3 °F 36.1 °F 30.21 in North 0.7 mph 1 mph 99% 0.00 in 0 W/m2
00:49 36.1 °F 35.9 °F 30.20 in WNW 0.1 mph 1 mph 99% 0.00 in 0 W/m2
00:54 36.1 °F 35.9 °F 30.20 in West 0.9 mph 1 mph 99% 0.00 in 0 W/m2
00:59 36.1 °F 35.9 °F 30.20 in Calm   1 mph 99% 0.00 in 0 W/m2
01:04 36.1 °F 35.9 °F 30.20 in Calm     99% 0.00 in 0 W/m2
01:09 36.1 °F 35.9 °F 30.20 in Calm     99% 0.00 in 0 W/m2
01:14 36.1 °F 35.9 °F 30.20 in Calm     99% 0.00 in 0 W/m2
01:19 36 °F 35.7 °F 30.20 in Calm     99% 0.00 in 0 W/m2
01:24 36 °F 35.7 °F 30.20 in North 0.3 mph   99% 0.00 in 0 W/m2
01:29 36 °F 35.7 °F 30.20 in North 1.5 mph 1.1 mph 99% 0.00 in 0 W/m2
01:34 36 °F 35.7 °F 30.20 in NNW 1.7 mph 2 mph 99% 0.00 in 0 W/m2
01:39 35.8 °F 35.5 °F 30.20 in WNW 1.2 mph 2 mph 99% 0.00 in 0 W/m2
01:44 35.8 °F 35.5 °F 30.20 in WNW 0.8 mph 1 mph 99% 0.00 in 0 W/m2
01:49 35.8 °F 35.5 °F 30.20 in Calm   1 mph 99% 0.00 in 0 W/m2
01:54 35.8 °F 35.5 °F 30.20 in NNW 1.4 mph 1.1 mph 99% 0.00 in 0 W/m2
01:59 35.8 °F 35.5 °F 30.20 in Calm   2 mph 99% 0.00 in 0 W/m2
02:04 35.6 °F 35.3 °F 30.20 in WNW 0.9 mph 0.4 mph 99% 0.00 in 0 W/m2
02:09 35.6 °F 35.3 °F 30.20 in North 0.3 mph 1 mph 99% 0.00 in 0 W/m2
02:14 35.6 °F 35.3 °F 30.20 in NNE 1.2 mph 1 mph 99% 0.00 in 0 W/m2
02:19 35.4 °F 35.2 °F 30.20 in NNW 2.1 mph 2 mph 99% 0.00 in 0 W/m2
02:24 35.4 °F 35.2 °F 30.20 in NW 1.1 mph 2 mph 99% 0.00 in 0 W/m2
02:29 35.4 °F 35.2 °F 30.20 in NNW 0.7 mph 2 mph 99% 0.00 in 0 W/m2
02:34 35.4 °F 35.2 °F 30.20 in WNW 0.5 mph 1 mph 99% 0.00 in 0 W/m2
02:39 35.4 °F 35.2 °F 30.20 in WNW 0.7 mph 1 mph 99% 0.00 in 0 W/m2
02:44 35.4 °F 35.2 °F 30.20 in North 0.7 mph 1 mph 99% 0.00 in 0 W/m2
02:49 35.3 °F 35.1 °F 30.20 in North 0.2 mph 1 mph 99% 0.00 in 0 W/m2
02:54 35.2 °F 35 °F 30.20 in North 0.6 mph 0.7 mph 99% 0.00 in 0 W/m2
02:59 35.2 °F 35 °F 30.19 in North 0.1 mph 1 mph 99% 0.00 in 0 W/m2
03:04 35.2 °F 35 °F 30.19 in North 0.3 mph 0.2 mph 99% 0.00 in 0 W/m2
03:09 35.1 °F 34.9 °F 30.19 in Calm   1 mph 99% 0.00 in 0 W/m2
03:14 35.1 °F 34.8 °F 30.19 in North 1.7 mph 1 mph 99% 0.00 in 0 W/m2
03:19 35.1 °F 34.8 °F 30.19 in Calm   2 mph 99% 0.00 in 0 W/m2
03:24 35.1 °F 34.8 °F 30.19 in Calm     99% 0.00 in 0 W/m2
03:29 35.1 °F 34.8 °F 30.19 in North 0.4 mph 0.2 mph 99% 0.00 in 0 W/m2
03:34 35.1 °F 34.8 °F 30.19 in North 0.6 mph 1 mph 99% 0.00 in 0 W/m2
03:39 35.1 °F 34.8 °F 30.19 in North 0.9 mph 1 mph 99% 0.00 in 0 W/m2
03:44 35.1 °F 34.8 °F 30.19 in NNW 1.2 mph 1 mph 99% 0.00 in 0 W/m2
03:49 35.1 °F 34.9 °F 30.19 in NNW 0.4 mph 2 mph 99% 0.00 in 0 W/m2
03:54 35.2 °F 35 °F 30.19 in Calm     99% 0.00 in 0 W/m2
03:59 35.2 °F 34.9 °F 30.19 in North 0.4 mph 1 mph 99% 0.00 in 0 W/m2
04:04 35.1 °F 34.8 °F 30.19 in Calm   1 mph 99% 0.00 in 0 W/m2
04:09 35.1 °F 34.8 °F 30.19 in Calm     99% 0.00 in 0 W/m2
04:14 35.1 °F 34.8 °F 30.19 in Calm     99% 0.00 in 0 W/m2
04:19 35.1 °F 34.8 °F 30.19 in North 0.6 mph 0.9 mph 99% 0.00 in 0 W/m2
04:24 35.1 °F 34.8 °F 30.19 in North 1.1 mph 1 mph 99% 0.00 in 0 W/m2
04:29 35.1 °F 34.8 °F 30.19 in NW 1.4 mph 2 mph 99% 0.00 in 0 W/m2
04:34 35.1 °F 34.8 °F 30.19 in Calm   2 mph 99% 0.00 in 0 W/m2
04:39 35.1 °F 34.8 °F 30.19 in Calm     99% 0.00 in 0 W/m2
04:44 35.1 °F 34.8 °F 30.19 in North 0.5 mph   99% 0.00 in 0 W/m2
04:49 35.1 °F 34.8 °F 30.19 in North 0.7 mph 2 mph 99% 0.00 in 0 W/m2
04:54 35.1 °F 34.8 °F 30.19 in NNW 0.7 mph 1 mph 99% 0.00 in 0 W/m2
04:59 35.1 °F 34.8 °F 30.19 in Calm   1 mph 99% 0.00 in 0 W/m2
05:04 35.1 °F 34.8 °F 30.19 in Calm     99% 0.00 in 0 W/m2
05:09 35.1 °F 34.8 °F 30.19 in North 0.4 mph 0.2 mph 99% 0.00 in 0 W/m2
05:14 35.1 °F 34.8 °F 30.19 in North 0.5 mph 1 mph 99% 0.00 in 0 W/m2
05:19 35 °F 34.7 °F 30.19 in North 0.4 mph 1 mph 99% 0.00 in 0 W/m2
05:24 34.9 °F 34.6 °F 30.19 in North 0.4 mph 1 mph 99% 0.00 in 0 W/m2
05:29 34.8 °F 34.5 °F 30.19 in NNE 1.9 mph 1.8 mph 99% 0.00 in 0 W/m2
05:34 34.7 °F 34.4 °F 30.19 in NE 2.2 mph 2 mph 99% 0.00 in 0 W/m2
05:39 34.6 °F 34.3 °F 30.19 in NE 2.1 mph 2 mph 99% 0.00 in 0 W/m2
05:44 34.5 °F 34.3 °F 30.19 in NE 1 mph 2 mph 99% 0.00 in 0 W/m2
05:49 34.5 °F 34.3 °F 30.19 in NNE 0.7 mph 2 mph 99% 0.00 in 0 W/m2
05:54 34.4 °F 34.2 °F 30.19 in NNE 0.5 mph 2 mph 99% 0.00 in 0 W/m2
05:59 34.3 °F 34.1 °F 30.19 in Calm   1 mph 99% 0.00 in 0 W/m2
06:04 34.3 °F 34.1 °F 30.19 in Calm     99% 0.00 in 0 W/m2
06:09 34.3 °F 34.1 °F 30.19 in NNE 0.6 mph 0.2 mph 99% 0.00 in 0 W/m2
06:14 34.2 °F 34 °F 30.19 in Calm   1 mph 99% 0.00 in 0 W/m2
06:19 34.2 °F 33.9 °F 30.19 in Calm     99% 0.00 in 0 W/m2
06:24 34.2 °F 33.9 °F 30.19 in Calm     99% 0.00 in 0 W/m2
06:29 34.2 °F 33.9 °F 30.19 in Calm     99% 0.00 in 0 W/m2
06:34 34.1 °F 33.8 °F 30.19 in Calm     99% 0.00 in 1 W/m2
06:39 34 °F 33.7 °F 30.19 in Calm     99% 0.00 in 2 W/m2
06:44 34 °F 33.7 °F 30.19 in West 1.7 mph 1.8 mph 99% 0.00 in 4 W/m2
06:49 34 °F 33.7 °F 30.19 in NW 1.7 mph 3 mph 99% 0.00 in 7 W/m2
06:54 34 °F 33.7 °F 30.19 in NNE 1.9 mph 2 mph 99% 0.00 in 10 W/m2
06:59 34 °F 33.7 °F 30.19 in NNE 0.1 mph 2 mph 99% 0.00 in 14 W/m2
07:04 33.9 °F 33.6 °F 30.19 in NNE 0.1 mph 1 mph 99% 0.00 in 20 W/m2
07:09 33.8 °F 33.5 °F 30.19 in North 0.1 mph   99% 0.00 in 25 W/m2
07:14 33.6 °F 33.4 °F 30.19 in Calm   1 mph 99% 0.00 in 34 W/m2
07:19 33.6 °F 33.4 °F 30.19 in Calm     99% 0.00 in 44 W/m2
07:24 33.6 °F 33.4 °F 30.19 in North 0.2 mph 0.2 mph 99% 0.00 in 49 W/m2
07:29 33.5 °F 33.3 °F 30.19 in NNW 0.9 mph 2 mph 99% 0.00 in 48 W/m2
07:34 33.4 °F 33.2 °F 30.19 in Calm   2 mph 99% 0.00 in 78 W/m2
07:39 33.7 °F 33.4 °F 30.19 in North 0.8 mph 0.4 mph 99% 0.00 in 81 W/m2
07:44 34.2 °F 33.9 °F 30.19 in North 1.1 mph 2 mph 99% 0.00 in 93 W/m2
07:49 34.8 °F 34.5 °F 30.19 in North 0.4 mph 2 mph 99% 0.00 in 113 W/m2
07:54 35.2 °F 35 °F 30.19 in North 0.9 mph 2 mph 99% 0.00 in 122 W/m2
07:59 35.6 °F 35.3 °F 30.19 in North 0.7 mph 1 mph 99% 0.00 in 141 W/m2
08:04 36 °F 35.7 °F 30.19 in North 0.4 mph 1 mph 99% 0.00 in 147 W/m2
08:09 36.4 °F 36.1 °F 30.19 in Calm   1 mph 99% 0.00 in 137 W/m2
08:14 36.7 °F 36.4 °F 30.19 in NNE 0.4 mph   99% 0.00 in 150 W/m2
08:19 36.7 °F 36.4 °F 30.19 in NE 1.7 mph 2 mph 99% 0.00 in 180 W/m2
08:24 37 °F 36.7 °F 30.19 in NE 1 mph 2 mph 99% 0.00 in 195 W/m2
08:29 37.3 °F 37 °F 30.19 in NNE 1.7 mph 2 mph 99% 0.00 in 199 W/m2
08:34 37.2 °F 37 °F 30.18 in NE 1.2 mph 3 mph 99% 0.00 in 188 W/m2
08:39 37.7 °F 37.4 °F 30.18 in NE 1.9 mph 2 mph 99% 0.00 in 228 W/m2
08:44 37.9 °F 37.7 °F 30.19 in ENE 1.4 mph 2 mph 99% 0.00 in 201 W/m2
08:49 38.2 °F 37.9 °F 30.19 in SSW 2.3 mph 2 mph 99% 0.00 in 263 W/m2
08:54 38.5 °F 38.2 °F 30.19 in SW 2.3 mph 3 mph 99% 0.00 in 305 W/m2
08:59 38.6 °F 38.3 °F 30.19 in SW 2.6 mph 2.2 mph 99% 0.00 in 347 W/m2
09:04 38.9 °F 38.6 °F 30.19 in SSW 2.7 mph 4 mph 99% 0.00 in 399 W/m2
09:09 39.4 °F 39.1 °F 30.18 in SW 3.4 mph 4 mph 99% 0.00 in 412 W/m2
09:14 39.8 °F 39.5 °F 30.18 in SW 3.1 mph 4 mph 99% 0.00 in 410 W/m2
09:19 40.2 °F 39.9 °F 30.18 in SW 3.4 mph 4 mph 99% 0.00 in 317 W/m2
09:24 40.1 °F 39.8 °F 30.18 in SW 3.3 mph 5 mph 99% 0.00 in 381 W/m2
09:29 40.3 °F 40 °F 30.18 in SW 3.1 mph 3 mph 99% 0.00 in 354 W/m2
09:34 40.5 °F 40 °F 30.18 in SW 2.2 mph 4 mph 98.2% 0.00 in 397 W/m2
09:39 40.8 °F 40.3 °F 30.18 in SW 2.2 mph 3 mph 98% 0.00 in 358 W/m2
09:44 41 °F 40.1 °F 30.18 in NW 2.7 mph 4 mph 96.4% 0.00 in 361 W/m2
09:49 41.3 °F 40.4 °F 30.18 in North 4.6 mph 5 mph 96.8% 0.00 in 389 W/m2
09:54 41.3 °F 40.2 °F 30.18 in NE 4 mph 6 mph 95.8% 0.00 in 354 W/m2
09:59 41.1 °F 39.8 °F 30.18 in ENE 2.2 mph 4 mph 95.3% 0.00 in 423 W/m2
10:04 41.7 °F 40.6 °F 30.18 in ESE 3.5 mph 2.7 mph 95.6% 0.00 in 428 W/m2
10:09 42.2 °F 40.8 °F 30.17 in NW 3.7 mph 5 mph 94.7% 0.00 in 430 W/m2
10:14 42.8 °F 41.4 °F 30.17 in NNE 7.9 mph 6 mph 94.5% 0.00 in 470 W/m2
10:19 43.1 °F 41.2 °F 30.17 in NE 6.9 mph 12 mph 93.1% 0.00 in 361 W/m2
10:24 43.1 °F 41.2 °F 30.17 in NE 8.8 mph 9 mph 93% 0.00 in 486 W/m2
10:29 43.5 °F 41.4 °F 30.16 in NNE 8.7 mph 12 mph 92.3% 0.00 in 505 W/m2
10:34 43.8 °F 41.4 °F 30.16 in North 7.4 mph 12 mph 91.4% 0.00 in 533 W/m2
10:39 44.4 °F 41.9 °F 30.16 in NNE 8.3 mph 9 mph 90.9% 0.00 in 559 W/m2
10:44 44.7 °F 41.8 °F 30.16 in NNE 8.3 mph 9 mph 89.5% 0.00 in 490 W/m2
10:49 44.8 °F 41.7 °F 30.16 in NNE 6.8 mph 11 mph 88.8% 0.00 in 536 W/m2
10:54 45.1 °F 42 °F 30.16 in NNE 9 mph 10 mph 88.5% 0.00 in 552 W/m2
10:59 45.6 °F 42.3 °F 30.16 in North 8.5 mph 10 mph 88% 0.00 in 610 W/m2
11:04 45.9 °F 42.5 °F 30.15 in North 8.7 mph 10 mph 87.8% 0.00 in 592 W/m2
11:09 45.6 °F 41.8 °F 30.15 in North 8.3 mph 10 mph 86.2% 0.00 in 227 W/m2
11:14 45 °F 41.3 °F 30.15 in North 10.5 mph 10 mph 87% 0.00 in 398 W/m2
11:19 44.5 °F 41.1 °F 30.15 in North 8.6 mph 12 mph 88% 0.00 in 195 W/m2
11:24 44 °F 40.5 °F 30.15 in North 9.1 mph 10 mph 87.6% 0.00 in 211 W/m2
11:29 43.4 °F 40.2 °F 30.15 in North 11 mph 12 mph 88.4% 0.00 in 195 W/m2
11:34 43.2 °F 40.1 °F 30.14 in North 10.7 mph 12 mph 89% 0.00 in 164 W/m2
11:39 42.9 °F 39.9 °F 30.14 in North 10.7 mph 12 mph 89% 0.00 in 198 W/m2
11:44 42.7 °F 39.7 °F 30.14 in North 12.4 mph 13 mph 89% 0.00 in 343 W/m2
11:49 42.6 °F 39.7 °F 30.14 in North 8.7 mph 14 mph 89.4% 0.00 in 259 W/m2
11:54 42.6 °F 39.9 °F 30.14 in North 11.1 mph 9 mph 89.8% 0.00 in 247 W/m2
11:59 42.8 °F 40 °F 30.14 in North 10.2 mph 13 mph 89.7% 0.00 in 385 W/m2
12:04 43 °F 40.1 °F 30.14 in North 10.3 mph 13 mph 89.5% 0.00 in 201 W/m2
12:09 42.7 °F 39.7 °F 30.14 in North 8.8 mph 12 mph 89% 0.00 in 201 W/m2
12:14 42.5 °F 39.5 °F 30.13 in North 9.3 mph 11 mph 89% 0.00 in 185 W/m2
12:19 42.3 °F 39.2 °F 30.13 in North 10.6 mph 11 mph 89% 0.00 in 136 W/m2
12:24 42.1 °F 39.1 °F 30.13 in North 10.2 mph 13 mph 89% 0.00 in 214 W/m2
12:29 42 °F 39 °F 30.13 in North 10.6 mph 12 mph 89% 0.00 in 201 W/m2
12:34 42.2 °F 39.1 °F 30.13 in North 11.5 mph 13 mph 89% 0.00 in 463 W/m2
12:39 42.4 °F 39.4 °F 30.13 in North 10.3 mph 14 mph 89% 0.00 in 174 W/m2
12:44 42.6 °F 39.5 °F 30.13 in North 9.9 mph 13 mph 88.7% 0.00 in 181 W/m2
12:49 42.6 °F 39.3 °F 30.13 in North 10.4 mph 12 mph 88% 0.00 in 179 W/m2
12:54 42.6 °F 39.3 °F 30.13 in North 12.3 mph 13 mph 88% 0.00 in 154 W/m2
12:59 42.5 °F 39.2 °F 30.13 in North 9.7 mph 14 mph 88% 0.00 in 188 W/m2
13:04 42.5 °F 39.2 °F 30.13 in North 9.3 mph 12 mph 88% 0.00 in 284 W/m2
13:09 42.7 °F 39.4 °F 30.13 in North 10.8 mph 13 mph 88% 0.00 in 312 W/m2
13:14 42.8 °F 39.4 °F 30.13 in North 11.6 mph 13 mph 87.5% 0.00 in 211 W/m2
13:19 42.8 °F 38.9 °F 30.14 in North 10.3 mph 13 mph 86% 0.00 in 203 W/m2
13:24 42.8 °F 38.8 °F 30.14 in North 11.8 mph 13 mph 86% 0.00 in 118 W/m2
13:29 42.4 °F 38.5 °F 30.13 in North 10.4 mph 13 mph 86% 0.00 in 120 W/m2
13:34 42.3 °F 38.9 °F 30.13 in North 9.7 mph 13 mph 87.8% 0.00 in 132 W/m2
13:39 42.3 °F 39 °F 30.13 in North 11.2 mph 13 mph 88% 0.00 in 108 W/m2
13:44 42 °F 38.7 °F 30.13 in North 12.1 mph 13 mph 88% 0.00 in 82 W/m2
13:49 41.9 °F 38.6 °F 30.13 in North 9.8 mph 15 mph 88.1% 0.00 in 99 W/m2
13:54 41.8 °F 38.8 °F 30.13 in North 10.2 mph 12 mph 89% 0.00 in 101 W/m2
13:59 41.7 °F 38.7 °F 30.13 in North 6.7 mph 14 mph 89% 0.00 in 101 W/m2
14:04 41.5 °F 38.5 °F 30.13 in North 11.4 mph 9 mph 89% 0.00 in 78 W/m2
14:09 41.3 °F 38.3 °F 30.13 in North 10 mph 13 mph 89% 0.00 in 69 W/m2
14:14 41.2 °F 38.3 °F 30.13 in North 11 mph 12 mph 89.5% 0.00 in 75 W/m2
14:19 41 °F 38.3 °F 30.14 in North 11 mph 13 mph 90% 0.00 in 82 W/m2
14:24 40.8 °F 38.1 °F 30.13 in North 13.5 mph 14 mph 90% 0.00 in 84 W/m2
14:29 40.7 °F 38 °F 30.13 in North 10.4 mph 15 mph 90% 0.00 in 85 W/m2
14:34 40.6 °F 38.1 °F 30.13 in North 11.6 mph 14 mph 90.7% 0.00 in 78 W/m2
14:39 40.5 °F 38 °F 30.13 in North 12 mph 14 mph 91% 0.00 in 74 W/m2
14:44 40.3 °F 37.9 °F 30.13 in North 11.8 mph 16 mph 91% 0.00 in 123 W/m2
14:49 40.4 °F 37.9 °F 30.13 in North 12.5 mph 16 mph 91% 0.00 in 106 W/m2
14:54 40.3 °F 37.9 °F 30.13 in North 10.5 mph 19 mph 91% 0.00 in 84 W/m2
14:59 40.2 °F 37.8 °F 30.13 in North 11.4 mph 12 mph 91% 0.00 in 65 W/m2
15:04 40.1 °F 37.7 °F 30.13 in North 10.7 mph 15 mph 91% 0.00 in 52 W/m2
15:09 40 °F 37.6 °F 30.13 in North 9.4 mph 13 mph 91% 0.00 in 48 W/m2
15:14 39.9 °F 37.5 °F 30.13 in North 9.6 mph 13 mph 91% 0.00 in 42 W/m2
15:19 39.7 °F 37.7 °F 30.14 in North 7.7 mph 13 mph 92.5% 0.00 in 38 W/m2
15:24 39.7 °F 37.3 °F 30.14 in North 9.2 mph 8 mph 91% 0.00 in 31 W/m2
15:29 39.7 °F 37.3 °F 30.14 in North 9.5 mph 11 mph 91% 0.00 in 27 W/m2
15:34 39.7 °F 37.3 °F 30.14 in North 6.7 mph 10 mph 91% 0.00 in 21 W/m2
15:39 39.7 °F 37.1 °F 30.13 in North 7.8 mph 8 mph 90.5% 0.00 in 15 W/m2
15:44 39.8 °F 37.1 °F 30.14 in North 4.8 mph 11 mph 90% 0.00 in 11 W/m2
15:49 39.9 °F 37.2 °F 30.13 in North 5.6 mph 6 mph 90% 0.00 in 8 W/m2
15:54 39.9 °F 37.2 °F 30.13 in NNW 6.7 mph 8 mph 90% 0.00 in 4 W/m2
15:59 39.9 °F 37.2 °F 30.13 in North 4.6 mph 7 mph 90% 0.00 in 3 W/m2
16:04 39.9 °F 37.2 °F 30.14 in North 3.7 mph 5 mph 90% 0.00 in 1 W/m2
16:09 39.9 °F 37.2 °F 30.13 in North 5 mph 6 mph 90% 0.00 in 0 W/m2
16:14 39.9 °F 37.2 °F 30.13 in North 3.3 mph 6 mph 90% 0.00 in 0 W/m2
16:19 39.9 °F 37.2 °F 30.13 in North 3.7 mph 6 mph 90% 0.00 in 0 W/m2
16:24 39.9 °F 37.2 °F 30.13 in NNW 4.5 mph 6 mph 90% 0.00 in 0 W/m2
16:29 39.8 °F 37.1 °F 30.13 in NNW 4.3 mph 6 mph 90% 0.00 in 0 W/m2
16:34 39.9 °F 37.2 °F 30.13 in NNW 3.7 mph 6 mph 90% 0.00 in 0 W/m2
16:39 39.7 °F 37.2 °F 30.13 in NE 3.8 mph 5 mph 90.5% 0.00 in 0 W/m2
16:44 39.7 °F 37.3 °F 30.13 in ESE 2.3 mph 4 mph 91% 0.00 in 0 W/m2
16:49 39.6 °F 37.2 °F 30.13 in NE 2.8 mph 3 mph 91% 0.00 in 0 W/m2
16:54 39.6 °F 37.2 °F 30.13 in NW 4.7 mph 5 mph 91% 0.00 in 0 W/m2
16:59 39.6 °F 37.1 °F 30.13 in North 3.2 mph 6 mph 90.4% 0.00 in 0 W/m2
17:04 39.7 °F 37 °F 30.13 in North 4 mph 6 mph 90% 0.00 in 0 W/m2
17:09 39.7 °F 37 °F 30.13 in North 4.8 mph 5 mph 90% 0.00 in 0 W/m2
17:14 39.7 °F 37 °F 30.13 in North 4 mph 6 mph 90% 0.00 in 0 W/m2
17:19 39.7 °F 37 °F 30.13 in NNW 3.7 mph 5 mph 90% 0.00 in 0 W/m2
17:24 39.7 °F 37.1 °F 30.13 in NW 2.7 mph 5 mph 90.2% 0.00 in 0 W/m2
17:29 39.7 °F 37.3 °F 30.13 in West 4.6 mph 4 mph 91% 0.00 in 0 W/m2
17:34 39.6 °F 37.2 °F 30.13 in WNW 4.1 mph 7 mph 91% 0.00 in 0 W/m2
17:39 39.6 °F 37.2 °F 30.13 in NNW 6.8 mph 7 mph 91% 0.00 in 0 W/m2
17:44 39.6 °F 37.2 °F 30.12 in North 5.6 mph 9 mph 91% 0.00 in 0 W/m2
17:47 39.5 °F 37.1 °F 30.13 in North 7.9 mph 9 mph 91% 0.00 in 0 W/m2
17:55 39.2 °F 37.3 °F 30.13 in North 5 mph 8 mph 93% 0.00 in 0 W/m2
18:00 39.2 °F 37.3 °F 30.13 in North 6 mph 9 mph 93% 0.00 in 0 W/m2
18:05 39 °F 37.2 °F 30.12 in North 5 mph 10 mph 93% 0.00 in 0 W/m2
18:10 39 °F 37.2 °F 30.13 in North 3 mph 8 mph 93% 0.00 in 0 W/m2
18:15 38.8 °F 37 °F 30.13 in North 1 mph 7 mph 93% 0.00 in 0 W/m2
18:20 38.7 °F 36.8 °F 30.13 in North 2 mph 5 mph 93% 0.00 in 0 W/m2
18:30 38.5 °F 36.6 °F 30.13 in Calm   8 mph 93% 0.00 in 0 W/m2
18:35 38.3 °F 36.7 °F 30.13 in North 1 mph 2 mph 94% 0.00 in 0 W/m2
18:40 38.1 °F 36.5 °F 30.13 in NNE 1 mph 4 mph 94% 0.00 in 0 W/m2
18:50 37.8 °F 36.2 °F 30.13 in Calm   2 mph 94% 0.00 in 0 W/m2
18:55 37.6 °F 36 °F 30.13 in Calm   2 mph 94% 0.00 in 0 W/m2
19:00 37.2 °F 35.9 °F 30.13 in South 1 mph 3 mph 95% 0.00 in 0 W/m2
19:09 36.4 °F 35.4 °F 30.13 in SSE 3.2 mph 2 mph 95.7% 0.00 in 0 W/m2
19:14 36.3 °F 35.3 °F 30.13 in SE 1.6 mph 3 mph 96% 0.00 in 0 W/m2
19:19 36.1 °F 35.1 °F 30.13 in ENE 1.3 mph 2 mph 96% 0.00 in 0 W/m2
19:24 35.8 °F 34.8 °F 30.13 in WNW 1.9 mph 1.6 mph 96% 0.00 in 0 W/m2
19:29 35.6 °F 34.6 °F 30.13 in SW 2.3 mph 3 mph 96% 0.00 in 0 W/m2
19:34 35.3 °F 34.6 °F 30.13 in SW 2.2 mph 2 mph 97.5% 0.00 in 0 W/m2
19:39 35.2 °F 34.7 °F 30.13 in NW 1.5 mph 2 mph 98% 0.00 in 0 W/m2
19:44 35 °F 34.5 °F 30.13 in West 2.5 mph 2 mph 98% 0.00 in 0 W/m2
19:49 34.8 °F 34.3 °F 30.12 in WSW 2.4 mph 5 mph 98% 0.00 in 0 W/m2
19:54 34.6 °F 34.1 °F 30.13 in WSW 2.4 mph 2.5 mph 98% 0.00 in 0 W/m2
19:59 34.2 °F 33.8 °F 30.13 in SSW 3.3 mph 3.1 mph 98.7% 0.00 in 0 W/m2
20:04 33.9 °F 33.6 °F 30.13 in South 2.8 mph 4 mph 99% 0.00 in 0 W/m2
20:09 33.6 °F 33.4 °F 30.13 in South 2.8 mph 3 mph 99% 0.00 in 0 W/m2
20:14 33.5 °F 33.3 °F 30.13 in South 2.9 mph 3 mph 99% 0.00 in 0 W/m2
20:19 33.3 °F 33.1 °F 30.13 in South 2.7 mph 3 mph 99% 0.00 in 0 W/m2
20:24 33.2 °F 32.9 °F 30.13 in SSW 2.8 mph 3 mph 99% 0.00 in 0 W/m2
20:29 33 °F 32.8 °F 30.13 in South 1.9 mph 3 mph 99% 0.00 in 0 W/m2
20:34 32.9 °F 32.7 °F 30.13 in SW 1.6 mph 2 mph 99% 0.00 in 0 W/m2
20:39 32.9 °F 32.7 °F 30.13 in WSW 1.5 mph 2 mph 99% 0.00 in 0 W/m2
20:44 32.8 °F 32.6 °F 30.13 in West 1.1 mph 2 mph 99% 0.00 in 0 W/m2
20:49 32.6 °F 32.4 °F 30.13 in West 1.1 mph 1 mph 99% 0.00 in 0 W/m2
20:54 32.5 °F 32.2 °F 30.13 in SW 1.3 mph 1 mph 99% 0.00 in 0 W/m2
20:59 32.4 °F 32.1 °F 30.13 in WSW 2.2 mph 2 mph 99% 0.00 in 0 W/m2
21:04 32.3 °F 32 °F 30.13 in West 1.2 mph 2 mph 99% 0.00 in 0 W/m2
21:09 32.2 °F 31.9 °F 30.13 in WNW 1.6 mph 1.8 mph 99% 0.00 in 0 W/m2
21:14 32.1 °F 31.9 °F 30.13 in WNW 2.1 mph 2 mph 99% 0.00 in 0 W/m2
21:19 32 °F 31.8 °F 30.13 in NW 1.6 mph 2 mph 99% 0.00 in 0 W/m2
21:24 32 °F 31.8 °F 30.13 in WNW 1.3 mph 2 mph 99% 0.00 in 0 W/m2
21:29 31.9 °F 31.7 °F 30.13 in WNW 0.5 mph 2 mph 99% 0.00 in 0 W/m2
21:34 31.9 °F 31.7 °F 30.13 in NNW 0.7 mph 0.2 mph 99% 0.00 in 0 W/m2
21:39 31.9 °F 31.7 °F 30.13 in North 2 mph 1.3 mph 99% 0.00 in 0 W/m2
21:44 31.9 °F 31.7 °F 30.12 in NE 1.4 mph 2 mph 99% 0.00 in 0 W/m2
21:49 31.8 °F 31.6 °F 30.12 in SE 2.1 mph 2 mph 99% 0.00 in 0 W/m2
21:54 31.8 °F 31.6 °F 30.12 in SSE 2 mph 2 mph 99% 0.00 in 0 W/m2
21:59 31.7 °F 31.5 °F 30.12 in SSE 1.6 mph 2.2 mph 99% 0.00 in 0 W/m2
22:04 31.6 °F 31.4 °F 30.12 in SSE 0.4 mph 3 mph 99% 0.00 in 0 W/m2
22:09 31.5 °F 31.2 °F 30.12 in WNW 2.1 mph 1.3 mph 99% 0.00 in 0 W/m2
22:14 31.5 °F 31.2 °F 30.12 in WNW 1.7 mph 3 mph 99% 0.00 in 0 W/m2
22:19 31.3 °F 31.1 °F 30.12 in NW 2.4 mph 3 mph 99% 0.00 in 0 W/m2
22:24 31.4 °F 31.1 °F 30.12 in WNW 1.6 mph 2 mph 99% 0.00 in 0 W/m2
22:29 31.3 °F 31 °F 30.12 in WNW 1.7 mph 2 mph 99% 0.00 in 0 W/m2
22:34 31.3 °F 31 °F 30.12 in NNW 1.6 mph 2 mph 99% 0.00 in 0 W/m2
22:39 31.3 °F 31 °F 30.12 in South 0.7 mph 2 mph 99% 0.00 in 0 W/m2
22:44 31.3 °F 31 °F 30.12 in SSE 1.9 mph 1.8 mph 99% 0.00 in 0 W/m2
22:49 31.1 °F 30.9 °F 30.12 in ENE 2.3 mph 2 mph 99% 0.00 in 0 W/m2
22:54 31.1 °F 30.9 °F 30.12 in NW 2.3 mph 2 mph 99% 0.00 in 0 W/m2
22:59 31.1 °F 30.9 °F 30.12 in NW 1.6 mph 3 mph 99% 0.00 in 0 W/m2
23:04 30.9 °F 30.7 °F 30.12 in NW 1.7 mph 2 mph 99% 0.00 in 0 W/m2
23:09 30.9 °F 30.7 °F 30.12 in NW 1.8 mph 4 mph 99% 0.00 in 0 W/m2
23:14 30.9 °F 30.7 °F 30.12 in NW 1.9 mph 3 mph 99% 0.00 in 0 W/m2
23:19 30.9 °F 30.7 °F 30.12 in NW 2.1 mph 2 mph 99% 0.00 in 0 W/m2
23:24 30.9 °F 30.7 °F 30.12 in WNW 2.1 mph 2 mph 99% 0.00 in 0 W/m2
23:29 30.9 °F 30.7 °F 30.12 in WNW 1.3 mph 2 mph 99% 0.00 in 0 W/m2
23:34 30.9 °F 30.7 °F 30.12 in West 1.2 mph 2 mph 99% 0.00 in 0 W/m2
23:39 30.8 °F 30.6 °F 30.11 in WNW 2.2 mph 2 mph 99% 0.00 in 0 W/m2
23:44 30.7 °F 30.5 °F 30.12 in WNW 2.1 mph 2 mph 99% 0.00 in 0 W/m2
23:49 30.7 °F 30.5 °F 30.11 in WNW 2.6 mph 2.5 mph 99% 0.00 in 0 W/m2
23:54 30.7 °F 30.5 °F 30.11 in West 2.4 mph 3 mph 99% 0.00 in 0 W/m2
23:59 30.7 °F 30.5 °F 30.11 in West 2.1 mph 3 mph 99% 0.00 in 0 W/m2
Knjazevac, Serbia
Compliments of Weather Underground - 4 mb